Málaga, Espanja

31. maaliskuuta 2015 klo 19:00 (CEST) (GMT +0200)
IALALHAU2 | | Change Station
CLOSE
Current Station
Omat sääasemat
Location: Alhaurin De La Torre, Malaga
Korkeus: 360 ft
Lähimmät sääasemat

Kork 360 ft 36.66 °N, 4.55 °W | Updated 9 minutes ago

Clear
Selkeää
81.5 °F
Tuntuu kuin 80 °F
N
6.0
Tuuli Suunnaltaan vaihteleva Tuuli ilmansuunnasta Itä
Gusts 10.5 mph

Tänään
Korkea -- | Matala -- °F
--% Sateen mahd.
Eilen
Korkea -- | Matala -- °F
Precip. -- tuumaa
8:05 AM 8:38 PM
Kasvava kupera kuu, 87% visible
Ilmanpaine 30.18 tuumaa
Näkyvyys -9999.0 mailia
Pilviä
Lämpötilaindeksi 80 °F
Kastepiste 46 °F
Ilmankosteus 30%
Sademäärä -999.00 tuumaa
Lumensyvyys Ei saatavilla
UV Ei saatavilla
Pollen Ei saatavilla
Ilmanlaatu Ei saatavilla
Flu Activity Ei saatavilla
METAR LXGB 311650Z 09002KT CAVOK 24/12 Q1022 NOSIG

More Conditions Fewer Conditions

Ilmanpaine 30.18 tuumaa
Näkyvyys -9999.0 mailia
Pilviä
Lämpötilaindeksi 80 °F
Kastepiste 46 °F
Ilmankosteus 30%
Sademäärä -999.00 tuumaa
Lumensyvyys Ei saatavilla
UV Ei saatavilla
Pollen Ei saatavilla
Ilmanlaatu Ei saatavilla
Flu Activity Ei saatavilla
METAR LXGB 311650Z 09002KT CAVOK 24/12 Q1022 NOSIG

More Conditions Fewer Conditions

10-Day Weather Forecast

Almanac

Tähtitiede

Mar. 31, 2015 Nousuaika Laskuaika
Valoisa aika
Porvarillinen hämärä
Nauttinen hämärä
Astronominen hämärä
Kuu
Näkyvän valon pituus
Päivän pituus
Tomorrow will be .
, % of the Moon is Illuminated

Tämän päivän ennätykset

Country Highs Country Lows

Community

WunderPhotos

Upload Photos

1,809,787 photos uploaded!

WunderBlogs® & News

Nearby

Ilmanlaatu

  Ilmanlaatu AQ Index Pollutant
Not available.

Lumensyvyys

Station Depth Korkeus

Maanjäristysaktiivisuus

Paikkakunta Distance Mag. Time & Date
Minimum magnitude displayed is 2.5.

Coastal Water Temperatures

Paikka Lämpötila

Stations

Lähimmät sääasemat

Aseman sijainti Lämpötila Tuulen hyytävyys Kastepiste Ilmankosteus Tuuli Precip. Kork Päivitetty Tyyppi